Time;durP1;ratioP1;P1;durP2;ratioP2;P2;SDS_P1;SDS_P2;PMS_P1;PMS_P2;Temp;Humidity;BMP_temperature;BMP_pressure;BME280_temperature;BME280_humidity;BME280_pressure;Samples;Min_cycle;Max_cycle;Signal;HPM_P1;HPM_P2
2023/10/15 00:01:42;;;;;;;3.63;2.47;;;;;;;16.03;67.94;98929.91;5149886;27;20035;-74
2023/10/15 00:04:12;;;;;;;3.72;2.50;;;;;;;15.93;66.87;98931.66;5149543;27;20046;-74
2023/10/15 00:06:40;;;;;;;3.47;2.22;;;;;;;15.89;66.62;98929.34;5149679;27;20341;-74
2023/10/15 00:09:07;;;;;;;3.80;2.20;;;;;;;15.89;67.87;98921.34;5149981;27;20047;-74
2023/10/15 00:11:35;;;;;;;3.40;2.15;;;;;;;16.02;66.95;98938.03;5131944;27;20043;-74
2023/10/15 00:14:03;;;;;;;5.07;2.67;;;;;;;15.74;64.62;98944.00;5149118;27;20059;-74
2023/10/15 00:16:30;;;;;;;4.43;2.63;;;;;;;15.79;66.17;98949.81;5132438;27;20035;-74
2023/10/15 00:18:57;;;;;;;3.80;2.40;;;;;;;15.78;65.34;98961.47;5149502;27;20043;-75
2023/10/15 00:21:26;;;;;;;5.30;3.10;;;;;;;15.81;65.54;98961.22;5149425;27;20052;-74
2023/10/15 00:23:53;;;;;;;3.42;2.50;;;;;;;15.61;65.43;98960.16;5131464;27;20118;-74
2023/10/15 00:26:21;;;;;;;4.65;2.35;;;;;;;15.68;65.44;98956.03;5149611;27;20043;-74
2023/10/15 00:28:49;;;;;;;5.50;2.80;;;;;;;15.40;64.93;98922.69;5149363;27;20039;-74
2023/10/15 00:31:17;;;;;;;10.02;2.42;;;;;;;15.57;64.60;98934.66;5131555;27;20229;-74
2023/10/15 00:33:46;;;;;;;3.50;2.38;;;;;;;15.56;65.04;98973.88;5149294;27;20100;-74
2023/10/15 00:36:13;;;;;;;5.35;2.67;;;;;;;15.50;66.50;98939.66;5148868;27;20080;-74
2023/10/15 00:38:43;;;;;;;5.15;2.35;;;;;;;15.58;64.09;98963.91;5149435;27;20099;-74
2023/10/15 00:41:10;;;;;;;4.28;2.22;;;;;;;15.49;63.06;98978.03;5148503;27;20070;-74
2023/10/15 00:43:37;;;;;;;3.85;2.20;;;;;;;15.47;64.10;98985.31;5130981;27;20054;-74
2023/10/15 00:46:13;;;;;;;6.22;2.90;;;;;;;15.53;64.17;98987.50;5131779;27;20275;-74
2023/10/15 00:48:41;;;;;;;5.82;4.03;;;;;;;15.50;64.44;98969.03;5148659;27;20299;-74
2023/10/15 00:51:11;;;;;;;4.93;3.30;;;;;;;15.54;63.58;98986.50;5148537;27;20219;-74
2023/10/15 00:53:47;;;;;;;6.32;3.13;;;;;;;15.43;64.04;98970.50;5149205;27;20035;-73
2023/10/15 00:56:17;;;;;;;5.28;3.20;;;;;;;14.81;63.56;98904.34;5148610;27;20048;-74
2023/10/15 00:58:54;;;;;;;5.30;3.35;;;;;;;15.50;64.10;98982.41;5130991;27;20042;-75
2023/10/15 01:01:26;;;;;;;7.78;4.55;;;;;;;15.07;63.75;98918.28;5130812;27;20106;-74
2023/10/15 01:03:57;;;;;;;5.63;3.85;;;;;;;14.57;63.43;98826.22;5148950;27;20290;-74
2023/10/15 01:06:35;;;;;;;6.00;2.92;;;;;;;15.40;63.83;98973.44;5130529;27;20053;-74
2023/10/15 01:09:09;;;;;;;5.38;2.80;;;;;;;15.34;63.09;98963.25;5130230;27;20076;-74
2023/10/15 01:11:36;;;;;;;6.68;3.28;;;;;;;15.44;63.51;98968.69;5148748;27;20115;-74
2023/10/15 01:14:03;;;;;;;4.38;2.40;;;;;;;15.42;62.55;98976.81;5148440;27;20043;-74
2023/10/15 01:16:36;;;;;;;4.50;2.42;;;;;;;15.33;63.58;98988.25;5130149;27;20037;-74
2023/10/15 01:19:15;;;;;;;4.68;3.00;;;;;;;15.36;62.16;98988.84;5148101;27;20046;-74
2023/10/15 01:21:47;;;;;;;5.22;2.80;;;;;;;15.21;62.93;98995.41;5130336;27;20050;-74
2023/10/15 01:24:18;;;;;;;4.10;2.70;;;;;;;15.14;61.93;98994.22;5148331;27;20066;-74
2023/10/15 01:26:59;;;;;;;6.15;3.05;;;;;;;14.81;62.04;98965.72;5148133;27;20042;-75
2023/10/15 01:29:27;;;;;;;6.00;3.50;;;;;;;14.85;61.73;99006.34;5148255;27;20036;-74
2023/10/15 01:31:58;;;;;;;3.90;2.65;;;;;;;14.81;62.05;99002.22;5129798;27;20100;-75
2023/10/15 01:34:25;;;;;;;4.88;2.47;;;;;;;14.63;61.35;98977.81;5129746;27;20180;-75
2023/10/15 01:36:52;;;;;;;5.13;2.40;;;;;;;14.93;62.18;98995.91;5129593;27;20230;-74
2023/10/15 01:39:30;;;;;;;5.15;2.45;;;;;;;14.92;61.36;98994.22;5129705;27;20379;-74
2023/10/15 01:42:03;;;;;;;3.78;2.30;;;;;;;14.99;60.81;99004.28;5131067;27;20231;-75
2023/10/15 01:44:31;;;;;;;7.28;2.63;;;;;;;14.85;59.95;99009.84;5125921;28;20047;-75
2023/10/15 01:47:11;;;;;;;6.97;2.95;;;;;;;14.83;59.98;99006.47;5127184;28;20106;-75
2023/10/15 01:49:39;;;;;;;4.47;2.92;;;;;;;14.92;60.87;99000.41;5127711;28;20210;-75
2023/10/15 01:52:09;;;;;;;7.15;2.35;;;;;;;14.97;60.11;98995.56;5109087;28;20074;-75
2023/10/15 01:54:36;;;;;;;4.45;2.58;;;;;;;14.92;60.30;98997.72;5126206;28;20081;-75
2023/10/15 01:57:06;;;;;;;5.25;2.72;;;;;;;14.90;59.82;99001.50;5125851;28;20042;-75
2023/10/15 01:59:41;;;;;;;3.70;2.72;;;;;;;14.92;59.99;98997.72;5127034;28;20055;-75
2023/10/15 02:02:13;;;;;;;4.55;2.83;;;;;;;14.95;60.31;99001.97;5126886;28;20040;-74
2023/10/15 02:04:44;;;;;;;5.95;2.85;;;;;;;14.97;59.63;99002.72;5126947;28;20100;-75
2023/10/15 02:07:13;;;;;;;4.95;2.30;;;;;;;15.01;59.59;98998.81;5125913;28;20039;-74
2023/10/15 02:09:43;;;;;;;5.15;2.60;;;;;;;15.02;60.05;98990.69;5126883;28;20062;-74
2023/10/15 02:12:12;;;;;;;5.45;2.17;;;;;;;14.97;59.05;98995.56;5126784;28;20047;-75
2023/10/15 02:14:42;;;;;;;5.93;2.58;;;;;;;15.03;59.47;99004.88;5127040;28;20059;-75
2023/10/15 02:17:13;;;;;;;3.50;2.13;;;;;;;15.02;60.21;99006.72;5125523;28;20245;-74
2023/10/15 02:19:41;;;;;;;2.90;2.15;;;;;;;15.07;59.75;99014.34;5125579;28;20035;-75
2023/10/15 02:22:12;;;;;;;4.03;2.22;;;;;;;14.90;58.30;99005.00;5126617;28;20054;-75
2023/10/15 02:24:46;;;;;;;3.50;2.30;;;;;;;15.02;58.69;99014.72;5126356;28;20039;-75
2023/10/15 02:27:17;;;;;;;5.60;2.65;;;;;;;14.95;57.62;99001.97;5126782;28;20043;-75
2023/10/15 02:29:49;;;;;;;6.18;2.70;;;;;;;14.56;56.78;98979.19;5126211;28;20047;-74
2023/10/15 02:32:27;;;;;;;4.63;2.50;;;;;;;14.36;57.25;98940.75;5125377;28;20040;-75
2023/10/15 02:34:57;;;;;;;4.88;2.45;;;;;;;14.79;58.62;99009.47;5125354;28;20047;-75
2023/10/15 02:37:26;;;;;;;5.80;2.58;;;;;;;14.72;58.40;99019.78;5126090;28;20031;-75
2023/10/15 02:39:53;;;;;;;3.83;2.70;;;;;;;14.81;57.61;99012.88;5126500;28;20046;-75
2023/10/15 02:42:30;;;;;;;4.55;2.20;;;;;;;14.72;57.95;99015.28;5126475;28;20052;-75
2023/10/15 02:44:58;;;;;;;5.90;2.65;;;;;;;14.44;57.55;98983.66;5140520;28;20055;-75
2023/10/15 02:47:31;;;;;;;5.70;2.78;;;;;;;14.63;57.94;99002.66;5128538;28;20223;-75
2023/10/15 02:50:01;;;;;;;4.97;2.90;;;;;;;14.75;58.26;98998.19;5146328;28;20058;-75
2023/10/15 02:52:35;;;;;;;7.85;3.30;;;;;;;14.58;56.23;98999.47;5129263;28;20092;-75
2023/10/15 02:55:10;;;;;;;4.50;2.65;;;;;;;14.64;58.37;99008.84;5129672;28;20039;-75
2023/10/15 02:57:39;;;;;;;4.28;2.10;;;;;;;14.12;57.85;98914.16;5146778;28;20172;-75
2023/10/15 03:00:13;;;;;;;7.55;2.83;;;;;;;14.62;57.13;99000.13;5128539;28;20237;-75
2023/10/15 03:02:43;;;;;;;5.78;2.95;;;;;;;14.09;57.89;98947.22;5146744;28;20077;-75
2023/10/15 03:05:13;;;;;;;5.32;2.60;;;;;;;14.67;57.62;99012.13;5128647;27;20076;-75
2023/10/15 03:07:42;;;;;;;4.32;2.25;;;;;;;14.74;58.20;99015.19;5133395;27;20336;-75
2023/10/15 03:10:10;;;;;;;4.07;2.53;;;;;;;14.70;58.31;99013.72;5150916;27;20131;-75
2023/10/15 03:12:43;;;;;;;3.60;2.45;;;;;;;14.65;58.30;99021.22;5132567;27;20080;-75
2023/10/15 03:15:13;;;;;;;6.35;2.42;;;;;;;14.56;57.23;99014.72;5151065;27;20043;-75
2023/10/15 03:17:42;;;;;;;4.15;2.20;;;;;;;14.60;57.27;99023.34;5150725;27;20055;-74
2023/10/15 03:20:24;;;;;;;5.78;3.03;;;;;;;14.55;57.54;99026.34;5150688;27;20082;-75
2023/10/15 03:22:58;;;;;;;5.45;3.05;;;;;;;14.60;57.37;99029.56;5150919;27;20039;-75
2023/10/15 03:25:26;;;;;;;6.57;2.58;;;;;;;14.55;56.87;99031.69;5150279;27;20042;-75
2023/10/15 03:27:59;;;;;;;5.03;2.65;;;;;;;14.41;56.59;99038.06;5150792;27;20039;-75
2023/10/15 03:30:26;;;;;;;5.13;2.53;;;;;;;14.38;56.99;99046.28;5150516;27;20062;-75
2023/10/15 03:32:53;;;;;;;4.38;2.47;;;;;;;14.34;56.54;99051.97;5150150;27;20087;-75
2023/10/15 03:35:32;;;;;;;4.55;2.35;;;;;;;14.31;56.66;99049.53;5150146;27;20035;-75
2023/10/15 03:38:04;;;;;;;6.25;2.38;;;;;;;14.22;54.89;99043.09;5132012;27;20047;-75
2023/10/15 03:40:40;;;;;;;5.07;2.78;;;;;;;14.16;56.07;99048.03;5150317;27;20043;-75
2023/10/15 03:43:15;;;;;;;6.20;2.22;;;;;;;14.28;56.08;99052.44;5150223;27;20110;-75
2023/10/15 03:45:50;;;;;;;4.63;2.42;;;;;;;14.32;56.26;99049.44;5150432;27;20043;-75
2023/10/15 03:48:18;;;;;;;6.43;3.42;;;;;;;14.33;55.92;99043.13;5132023;27;20039;-75
2023/10/15 03:50:54;;;;;;;4.47;2.60;;;;;;;14.04;53.01;99047.97;5150098;27;20043;-75
2023/10/15 03:53:22;;;;;;;4.47;2.35;;;;;;;13.68;55.29;98979.63;5149836;27;20039;-75
2023/10/15 03:55:50;;;;;;;5.65;2.47;;;;;;;14.03;55.45;99038.28;5131721;27;20035;-75
2023/10/15 03:58:21;;;;;;;5.40;2.38;;;;;;;14.02;53.18;99031.25;5150237;27;20035;-74
2023/10/15 04:00:55;;;;;;;4.05;2.40;;;;;;;14.07;54.19;99037.09;5131909;27;20043;-75
2023/10/15 04:03:28;;;;;;;5.82;2.80;;;;;;;14.10;54.05;99034.19;5132147;27;20043;-75
2023/10/15 04:06:00;;;;;;;4.40;2.38;;;;;;;13.92;53.48;99008.91;5149959;27;20051;-75
2023/10/15 04:08:27;;;;;;;5.88;2.60;;;;;;;13.80;52.50;98988.53;5149691;27;20114;-75
2023/10/15 04:10:56;;;;;;;5.80;2.25;;;;;;;14.02;54.16;99030.41;5131780;27;20047;-75
2023/10/15 04:13:26;;;;;;;3.85;2.17;;;;;;;13.56;50.91;98999.16;5149671;27;20171;-75
2023/10/15 04:15:54;;;;;;;5.45;2.40;;;;;;;13.85;53.28;99028.97;5149470;27;20067;-74
2023/10/15 04:18:22;;;;;;;4.88;2.50;;;;;;;13.59;52.06;99038.03;5131618;27;20055;-75
2023/10/15 04:20:49;;;;;;;4.13;2.25;;;;;;;13.57;52.12;99038.13;5149469;27;20043;-75
2023/10/15 04:23:30;;;;;;;5.30;2.53;;;;;;;13.55;52.18;99028.56;5149728;27;20039;-75
2023/10/15 04:26:00;;;;;;;6.60;2.72;;;;;;;13.61;51.85;99025.44;5149146;27;20043;-75
2023/10/15 04:28:28;;;;;;;3.92;2.30;;;;;;;13.61;52.38;99020.97;5149624;27;20046;-75
2023/10/15 04:30:56;;;;;;;3.95;2.08;;;;;;;13.60;53.43;99027.25;5131659;27;20178;-75
2023/10/15 04:33:27;;;;;;;4.78;2.28;;;;;;;13.55;52.38;99029.41;5149845;27;20070;-75
2023/10/15 04:35:56;;;;;;;5.53;2.70;;;;;;;13.14;53.32;98960.50;5148791;27;20126;-75
2023/10/15 04:38:27;;;;;;;6.20;2.75;;;;;;;13.59;52.71;99024.72;5131783;27;20126;-75
2023/10/15 04:41:03;;;;;;;6.45;3.08;;;;;;;13.55;52.19;99032.06;5149427;27;20043;-75
2023/10/15 04:43:41;;;;;;;6.18;2.72;;;;;;;13.57;52.30;99023.97;5148548;27;20095;-75
2023/10/15 04:46:08;;;;;;;4.38;2.13;;;;;;;13.56;52.90;99024.94;5148895;27;20042;-75
2023/10/15 04:48:36;;;;;;;6.18;2.70;;;;;;;13.54;52.13;99040.16;5130682;27;20063;-75
2023/10/15 04:51:12;;;;;;;4.65;2.35;;;;;;;13.52;52.08;99048.25;5149143;27;20295;-75
2023/10/15 04:53:42;;;;;;;6.18;2.63;;;;;;;12.87;52.03;98963.31;5131091;27;20047;-76
2023/10/15 04:56:09;;;;;;;6.90;2.50;;;;;;;12.93;51.91;98960.22;5148869;27;20306;-75
2023/10/15 04:58:38;;;;;;;4.57;2.67;;;;;;;13.47;50.64;99050.41;5148831;27;20055;-75
2023/10/15 05:01:05;;;;;;;6.13;2.03;;;;;;;13.49;52.26;99048.50;5148481;27;20043;-74
2023/10/15 05:03:32;;;;;;;5.93;2.67;;;;;;;12.95;51.37;98986.72;5148704;27;20049;-75
2023/10/15 05:06:02;;;;;;;4.57;2.30;;;;;;;13.27;52.33;99033.16;5130968;27;20114;-75
2023/10/15 05:08:29;;;;;;;3.47;2.10;;;;;;;13.42;52.29;99057.88;5148810;27;20050;-75
2023/10/15 05:10:56;;;;;;;5.28;2.70;;;;;;;12.88;51.57;98988.97;5130247;27;20172;-75
2023/10/15 05:13:24;;;;;;;3.65;2.08;;;;;;;13.36;51.96;99068.94;5148183;27;20043;-75
2023/10/15 05:15:53;;;;;;;5.90;2.58;;;;;;;13.29;51.94;99072.97;5148521;27;20199;-74
2023/10/15 05:18:20;;;;;;;5.93;2.78;;;;;;;12.84;52.31;99006.94;5129952;27;20043;-75
2023/10/15 05:20:48;;;;;;;4.80;2.67;;;;;;;12.82;51.99;99010.66;5130059;27;20237;-74
2023/10/15 05:23:16;;;;;;;4.75;2.45;;;;;;;13.28;52.98;99087.25;5129976;27;20057;-75
2023/10/15 05:25:43;;;;;;;6.68;2.42;;;;;;;12.76;51.46;99040.34;5148088;27;20058;-75
2023/10/15 05:28:14;;;;;;;3.83;2.03;;;;;;;13.19;51.71;99090.56;5147610;27;20035;-75
2023/10/15 05:30:44;;;;;;;5.40;2.35;;;;;;;13.13;51.95;99091.84;5148484;27;20043;-75
2023/10/15 05:33:12;;;;;;;5.15;2.40;;;;;;;13.18;52.47;99099.50;5149474;27;20039;-75
2023/10/15 05:35:40;;;;;;;4.78;2.70;;;;;;;13.17;51.99;99101.31;5148094;27;20039;-75
2023/10/15 05:38:08;;;;;;;4.63;2.38;;;;;;;13.23;51.91;99108.00;5147711;27;20043;-76
2023/10/15 05:40:35;;;;;;;6.65;3.08;;;;;;;13.11;51.77;99102.59;5147917;27;20045;-76
2023/10/15 05:43:02;;;;;;;8.70;2.97;;;;;;;13.15;51.01;99112.06;5147913;27;20146;-73
2023/10/15 05:45:28;;;;;;;5.13;2.40;;;;;;;13.21;52.06;99117.91;5146869;27;20058;-75
2023/10/15 05:47:55;;;;;;;6.50;2.83;;;;;;;13.19;52.58;99120.69;5148024;27;20333;-74
2023/10/15 05:50:23;;;;;;;5.20;2.55;;;;;;;13.04;52.74;99093.31;5147492;27;20198;-74
2023/10/15 05:52:50;;;;;;;6.32;2.65;;;;;;;13.21;52.06;99121.41;5147415;27;20047;-74
2023/10/15 05:55:17;;;;;;;4.03;2.15;;;;;;;13.18;52.36;99118.97;5147942;27;20043;-75
2023/10/15 05:57:44;;;;;;;4.85;2.35;;;;;;;13.20;52.15;99114.41;5148174;27;20153;-75
2023/10/15 06:00:18;;;;;;;3.92;2.10;;;;;;;13.18;52.42;99118.97;5130482;27;20050;-74
2023/10/15 06:02:45;;;;;;;4.97;2.53;;;;;;;13.11;52.04;99123.88;5147099;27;20047;-75
2023/10/15 06:05:13;;;;;;;9.20;3.17;;;;;;;13.12;52.38;99133.56;5147870;27;20050;-75
2023/10/15 06:07:42;;;;;;;6.68;2.70;;;;;;;12.97;52.42;99108.00;5130183;27;20031;-76
2023/10/15 06:10:11;;;;;;;5.90;3.00;;;;;;;13.09;51.72;99135.56;5147168;27;20111;-75
2023/10/15 06:12:38;;;;;;;6.63;2.25;;;;;;;13.13;51.60;99137.91;5130123;27;20056;-75
2023/10/15 06:15:06;;;;;;;6.32;2.47;;;;;;;12.98;52.14;99131.00;5147404;27;20047;-75
2023/10/15 06:17:33;;;;;;;4.82;2.60;;;;;;;13.00;52.27;99131.75;5147564;27;20092;-75
2023/10/15 06:20:12;;;;;;;6.30;3.17;;;;;;;12.99;52.06;99126.53;5130196;27;20054;-75
2023/10/15 06:22:39;;;;;;;5.32;2.60;;;;;;;13.01;51.64;99137.91;5147107;27;20060;-75
2023/10/15 06:25:08;;;;;;;5.97;2.60;;;;;;;13.04;52.57;99127.06;5112995;27;20122;-75
2023/10/15 06:27:36;;;;;;;5.90;2.50;;;;;;;13.06;51.82;99133.97;5147101;27;20034;-75
2023/10/15 06:30:05;;;;;;;5.40;2.20;;;;;;;12.86;51.90;99104.38;5147394;27;20283;-75
2023/10/15 06:32:32;;;;;;;4.90;2.50;;;;;;;13.05;51.15;99140.25;5129050;27;20039;-75
2023/10/15 06:34:59;;;;;;;3.25;2.00;;;;;;;13.08;51.25;99124.09;5147197;27;20031;-75
2023/10/15 06:37:27;;;;;;;5.90;2.30;;;;;;;13.06;50.84;99135.78;5146982;27;20035;-75
2023/10/15 06:39:54;;;;;;;4.60;3.08;;;;;;;13.07;50.79;99151.66;5147074;27;20043;-75
2023/10/15 06:42:23;;;;;;;5.95;2.47;;;;;;;12.75;50.64;99092.66;5146624;27;20054;-75
2023/10/15 06:44:49;;;;;;;5.90;2.63;;;;;;;12.95;50.54;99111.72;5125056;28;20327;-75
2023/10/15 06:47:17;;;;;;;5.70;3.08;;;;;;;13.03;49.81;99142.16;5125198;28;20043;-75
2023/10/15 06:49:44;;;;;;;8.30;2.85;;;;;;;13.13;50.21;99156.53;5125948;28;20035;-75
2023/10/15 06:52:11;;;;;;;5.38;2.70;;;;;;;12.27;50.96;99011.78;5126057;28;20296;-75
2023/10/15 06:54:38;;;;;;;5.97;2.70;;;;;;;13.02;50.51;99126.31;5125981;28;20044;-74
2023/10/15 06:57:05;;;;;;;5.30;2.72;;;;;;;13.35;50.93;99163.03;5125666;28;20044;-75
2023/10/15 06:59:33;;;;;;;6.50;2.42;;;;;;;13.34;50.13;99158.69;5126454;28;20040;-75
2023/10/15 07:01:59;;;;;;;3.85;2.30;;;;;;;13.37;50.54;99158.47;5126370;28;20308;-75
2023/10/15 07:04:27;;;;;;;6.53;2.60;;;;;;;12.22;49.78;98968.75;5126126;28;20090;-74
2023/10/15 07:06:55;;;;;;;6.75;2.55;;;;;;;12.85;50.25;99087.56;5126009;28;20040;-74
2023/10/15 07:09:21;;;;;;;4.25;2.30;;;;;;;13.37;50.70;99147.81;5126300;28;20377;-74
2023/10/15 07:11:48;;;;;;;4.28;2.55;;;;;;;13.38;50.54;99144.19;5126291;28;20039;-75
2023/10/15 07:14:15;;;;;;;5.82;2.55;;;;;;;13.41;50.58;99139.50;5124894;28;20084;-75
2023/10/15 07:16:44;;;;;;;4.13;2.20;;;;;;;13.43;51.14;99142.09;5108095;28;20177;-75
2023/10/15 07:19:11;;;;;;;5.07;2.88;;;;;;;13.47;50.84;99140.94;5125811;28;20270;-75
2023/10/15 07:21:38;;;;;;;4.88;2.00;;;;;;;12.80;50.58;99017.91;5124912;28;20035;-75
2023/10/15 07:24:06;;;;;;;4.95;2.22;;;;;;;13.62;51.06;99137.19;5125185;28;20365;-75
2023/10/15 07:26:33;;;;;;;4.63;2.17;;;;;;;13.12;48.65;99040.44;5126009;28;20043;-76
2023/10/15 07:29:00;;;;;;;7.97;2.28;;;;;;;13.75;49.12;99135.34;5125608;28;20031;-76
2023/10/15 07:31:27;;;;;;;7.13;2.30;;;;;;;13.84;50.28;99135.66;5124999;28;20181;-75
2023/10/15 07:33:55;;;;;;;8.32;2.72;;;;;;;13.89;48.95;99126.34;5125866;28;20043;-75
2023/10/15 07:36:22;;;;;;;5.43;2.47;;;;;;;13.95;48.97;99135.72;5124811;28;20040;-75
2023/10/15 07:38:49;;;;;;;4.20;2.20;;;;;;;13.02;49.26;98964.88;5125718;28;20187;-76
2023/10/15 07:41:15;;;;;;;6.22;2.70;;;;;;;13.97;49.22;99108.00;5125469;28;20039;-75
2023/10/15 07:43:42;;;;;;;3.92;2.30;;;;;;;14.11;48.08;99125.66;5128899;28;20211;-76
2023/10/15 07:46:10;;;;;;;4.47;1.95;;;;;;;13.73;46.80;99125.75;5128123;28;20054;-75
2023/10/15 07:48:37;;;;;;;4.50;2.70;;;;;;;14.29;47.32;99142.09;5128557;28;20039;-75
2023/10/15 07:51:06;;;;;;;6.63;2.20;;;;;;;14.34;47.23;99147.94;5128130;28;20039;-75
2023/10/15 07:53:33;;;;;;;4.78;2.22;;;;;;;14.44;47.02;99146.31;5149604;27;20307;-75
2023/10/15 07:56:00;;;;;;;5.28;2.88;;;;;;;14.50;47.28;99139.66;5149164;27;20106;-76
2023/10/15 07:58:26;;;;;;;4.68;1.90;;;;;;;14.04;46.62;99063.09;5132646;27;20053;-75
2023/10/15 08:00:53;;;;;;;7.63;2.58;;;;;;;14.13;45.55;99057.94;5149746;27;20047;-75
2023/10/15 08:03:20;;;;;;;4.13;2.40;;;;;;;14.66;46.80;99137.59;5131615;27;20059;-76
2023/10/15 08:05:48;;;;;;;4.28;2.15;;;;;;;14.81;45.81;99138.25;5131521;27;20049;-75
2023/10/15 08:08:16;;;;;;;4.35;2.65;;;;;;;14.83;45.45;99136.34;5131438;27;20077;-75
2023/10/15 08:10:43;;;;;;;8.07;2.63;;;;;;;14.23;46.20;99019.94;5149866;27;20043;-76
2023/10/15 08:13:12;;;;;;;6.57;2.85;;;;;;;14.95;45.28;99120.22;5131794;27;20118;-76
2023/10/15 08:15:39;;;;;;;4.55;2.72;;;;;;;14.72;44.49;99076.66;5149796;27;20360;-75
2023/10/15 08:18:07;;;;;;;3.88;2.08;;;;;;;15.07;44.87;99139.78;5131406;27;20114;-75
2023/10/15 08:20:34;;;;;;;6.22;2.72;;;;;;;14.85;44.79;99107.72;5130832;27;20283;-76
2023/10/15 08:23:01;;;;;;;4.60;2.67;;;;;;;14.97;46.10;99136.13;5149195;27;20066;-75
2023/10/15 08:25:31;;;;;;;4.95;2.40;;;;;;;14.92;45.12;99119.63;5149597;27;20084;-75
2023/10/15 08:27:58;;;;;;;6.07;2.40;;;;;;;14.87;46.18;99138.66;5130855;27;20035;-76
2023/10/15 08:30:25;;;;;;;3.47;2.00;;;;;;;14.75;45.04;99127.09;5149126;27;20039;-75
2023/10/15 08:32:52;;;;;;;8.38;2.38;;;;;;;14.61;46.09;99137.94;5130980;27;20046;-75
2023/10/15 08:35:19;;;;;;;5.43;2.60;;;;;;;14.65;45.78;99130.56;5149261;27;20049;-75
2023/10/15 08:37:47;;;;;;;6.72;3.10;;;;;;;14.65;46.88;99119.91;5131417;27;20043;-75
2023/10/15 08:40:17;;;;;;;5.50;2.42;;;;;;;14.68;47.41;99122.34;5131143;27;20085;-75
2023/10/15 08:42:51;;;;;;;5.13;2.53;;;;;;;14.02;47.26;99007.28;5131304;27;20039;-75
2023/10/15 08:45:22;;;;;;;4.28;2.50;;;;;;;14.47;46.25;99097.22;5148660;27;20051;-75
2023/10/15 08:47:50;;;;;;;4.07;2.03;;;;;;;14.46;47.85;99107.03;5148979;27;20326;-75
2023/10/15 08:50:20;;;;;;;5.25;2.85;;;;;;;13.67;47.19;98985.91;5148573;27;20050;-75
2023/10/15 08:52:48;;;;;;;4.80;2.70;;;;;;;14.50;48.06;99108.50;5148266;27;20054;-75
2023/10/15 08:55:15;;;;;;;5.05;3.08;;;;;;;14.43;48.23;99113.44;5148701;27;20053;-75
2023/10/15 08:57:42;;;;;;;6.75;2.70;;;;;;;14.32;46.60;99112.56;5131172;27;20058;-75
2023/10/15 09:00:25;;;;;;;7.18;3.05;;;;;;;14.32;48.34;99108.06;5148715;27;20291;-74
2023/10/15 09:02:54;;;;;;;5.82;3.38;;;;;;;14.04;47.65;99055.13;5149311;27;20087;-75
2023/10/15 09:05:21;;;;;;;5.80;3.08;;;;;;;14.35;48.23;99117.66;5130218;27;20047;-75
2023/10/15 09:07:49;;;;;;;6.72;2.80;;;;;;;14.33;48.54;99115.09;5131051;27;20035;-75
2023/10/15 09:10:18;;;;;;;6.03;3.22;;;;;;;14.23;49.49;99083.91;5148653;27;20284;-75
2023/10/15 09:12:44;;;;;;;4.43;3.30;;;;;;;14.33;48.63;99112.44;5148042;27;20345;-75
2023/10/15 09:15:17;;;;;;;5.68;3.55;;;;;;;14.30;48.79;99107.34;5149220;27;20152;-75
2023/10/15 09:17:50;;;;;;;5.00;2.88;;;;;;;14.22;49.53;99112.38;5130220;27;20221;-75
2023/10/15 09:20:26;;;;;;;5.97;3.10;;;;;;;14.21;48.73;99112.50;5130013;27;20043;-75
2023/10/15 09:22:53;;;;;;;7.57;3.65;;;;;;;14.17;49.81;99111.03;5148253;27;20059;-75
2023/10/15 09:25:20;;;;;;;5.78;3.17;;;;;;;13.98;49.58;99115.03;5148029;27;20054;-75
2023/10/15 09:27:47;;;;;;;5.68;3.08;;;;;;;13.96;49.40;99092.13;5148395;27;20194;-76
2023/10/15 09:30:21;;;;;;;5.25;2.85;;;;;;;11.64;48.60;98700.97;5148179;27;20046;-76
2023/10/15 09:32:49;;;;;;;4.95;3.67;;;;;;;13.92;49.21;99085.31;5147526;27;20054;-75
2023/10/15 09:35:16;;;;;;;5.57;3.20;;;;;;;13.69;49.36;99079.84;5148120;27;20047;-76
2023/10/15 09:37:44;;;;;;;6.55;3.63;;;;;;;13.88;48.31;99129.97;5147607;27;20043;-75
2023/10/15 09:40:18;;;;;;;5.30;3.22;;;;;;;13.94;49.36;99134.88;5147855;27;20057;-74
2023/10/15 09:42:45;;;;;;;;;;;;;;;13.87;48.77;99117.63;5148692;27;20043;-74
2023/10/15 09:45:18;;;;;;;4.38;2.75;;;;;;;13.76;48.84;99097.09;5125954;28;19916;-76
2023/10/15 09:47:49;;;;;;;5.43;2.92;;;;;;;13.94;48.79;99124.22;5127256;28;20093;-76
2023/10/15 09:50:24;;;;;;;4.57;2.90;;;;;;;13.80;47.26;99124.34;5127489;28;20066;-76
2023/10/15 09:52:56;;;;;;;7.18;4.15;;;;;;;13.82;48.20;99137.56;5126783;28;20035;-73
2023/10/15 09:55:27;;;;;;;5.70;2.97;;;;;;;13.92;48.79;99130.63;5126083;28;20048;-73
2023/10/15 09:57:55;;;;;;;6.40;3.35;;;;;;;13.72;47.80;99095.63;5127205;28;20080;-74
2023/10/15 10:00:32;;;;;;;6.85;3.60;;;;;;;13.92;48.37;99120.81;5126915;28;20137;-74
2023/10/15 10:03:17;;;;;;;5.55;3.10;;;;;;;13.94;48.16;99123.34;5127021;28;20207;-74
2023/10/15 10:05:56;;;;;;;7.00;3.60;;;;;;;13.92;48.22;99135.94;5125881;28;20040;-75
2023/10/15 10:08:33;;;;;;;4.82;3.25;;;;;;;13.99;48.51;99131.88;5127058;28;20064;-74
2023/10/15 10:11:18;;;;;;;7.65;3.63;;;;;;;13.91;47.51;99128.91;5125649;28;20085;-74
2023/10/15 10:14:15;;;;;;;5.95;3.50;;;;;;;13.89;47.64;99133.50;5126673;28;20051;-74
2023/10/15 10:16:42;;;;;;;6.43;3.35;;;;;;;13.95;48.16;99136.56;5127036;28;20063;-74
2023/10/15 10:19:11;;;;;;;7.03;3.65;;;;;;;13.91;46.44;99131.56;5126621;28;20055;-74
2023/10/15 10:21:40;;;;;;;5.20;3.22;;;;;;;13.92;46.19;99126.13;5125681;28;20043;-74
2023/10/15 10:24:12;;;;;;;4.63;3.10;;;;;;;13.91;45.68;99121.78;5125435;28;20043;-75
2023/10/15 10:26:40;;;;;;;6.03;3.13;;;;;;;13.89;45.81;99115.69;5126764;28;20225;-75
2023/10/15 10:29:09;;;;;;;6.82;3.50;;;;;;;13.88;46.00;99107.81;5126648;28;20044;-74
2023/10/15 10:31:39;;;;;;;5.65;3.80;;;;;;;13.92;45.58;99104.81;5126776;28;20055;-74
2023/10/15 10:34:05;;;;;;;5.50;3.13;;;;;;;13.96;46.47;99100.97;5126039;28;20279;-75
2023/10/15 10:36:38;;;;;;;6.05;3.03;;;;;;;14.00;46.58;99090.94;5126464;28;20042;-74
2023/10/15 10:39:13;;;;;;;6.25;4.38;;;;;;;13.55;46.11;99020.56;5126421;28;20109;-75
2023/10/15 10:41:43;;;;;;;5.25;3.60;;;;;;;13.91;46.00;99083.63;5125047;28;20063;-75
2023/10/15 10:44:12;;;;;;;7.82;3.15;;;;;;;13.82;44.60;99087.81;5108587;28;20051;-75
2023/10/15 10:46:43;;;;;;;5.38;2.58;;;;;;;13.76;44.77;99099.75;5126198;28;20306;-75
2023/10/15 10:49:15;;;;;;;5.70;3.20;;;;;;;13.83;45.17;99102.81;5126075;28;20036;-75
2023/10/15 10:52:03;;;;;;;5.60;2.83;;;;;;;13.86;45.81;99105.28;5125085;28;20056;-75
2023/10/15 10:54:30;;;;;;;4.57;2.60;;;;;;;13.83;45.42;99093.97;5126234;28;20303;-74
2023/10/15 10:56:58;;;;;;;6.22;2.55;;;;;;;13.76;45.24;99077.59;5125882;28;20043;-75
2023/10/15 10:59:25;;;;;;;4.03;2.63;;;;;;;13.37;45.07;99018.25;5126536;28;20334;-75
2023/10/15 11:01:53;;;;;;;4.63;2.92;;;;;;;13.87;45.68;99084.81;5125792;28;20077;-75
2023/10/15 11:04:19;;;;;;;5.97;2.63;;;;;;;13.90;46.00;99100.56;5124713;28;20048;-75
2023/10/15 11:06:48;;;;;;;5.20;3.03;;;;;;;13.91;46.70;99096.94;5126335;28;20043;-75
2023/10/15 11:09:16;;;;;;;6.00;2.80;;;;;;;13.99;46.31;99103.41;5125807;28;20075;-75
2023/10/15 11:11:44;;;;;;;4.80;2.72;;;;;;;14.01;46.64;99095.31;5125856;28;20059;-75
2023/10/15 11:14:12;;;;;;;5.22;2.85;;;;;;;13.98;46.49;99082.22;5126051;28;20050;-75
2023/10/15 11:16:40;;;;;;;6.50;2.92;;;;;;;14.01;46.45;99082.00;5125703;28;20039;-75
2023/10/15 11:19:15;;;;;;;7.47;2.97;;;;;;;13.99;46.82;99071.44;5125984;28;20074;-74
2023/10/15 11:21:42;;;;;;;5.97;3.38;;;;;;;13.82;46.56;99039.00;5126139;28;20321;-75
2023/10/15 11:24:10;;;;;;;6.00;3.00;;;;;;;14.04;46.81;99063.09;5125939;28;20082;-75
2023/10/15 11:26:41;;;;;;;6.97;3.50;;;;;;;14.08;46.80;99064.59;5126806;28;20106;-75
2023/10/15 11:29:10;;;;;;;6.30;3.35;;;;;;;14.07;46.39;99060.22;5128720;28;20262;-75
2023/10/15 11:31:37;;;;;;;5.20;3.08;;;;;;;14.00;46.04;99059.81;5129693;28;20101;-75
2023/10/15 11:34:04;;;;;;;4.72;2.78;;;;;;;14.02;46.22;99057.91;5128634;28;20039;-75
2023/10/15 11:36:34;;;;;;;6.07;2.50;;;;;;;14.06;46.46;99050.53;5129608;28;20051;-75
2023/10/15 11:39:08;;;;;;;4.15;2.38;;;;;;;13.91;45.78;99039.19;5130025;28;20260;-75
2023/10/15 11:41:38;;;;;;;5.90;2.72;;;;;;;14.03;44.39;99064.06;5128297;28;20330;-75
2023/10/15 11:44:06;;;;;;;4.97;3.10;;;;;;;13.95;45.27;99056.66;5136017;27;20055;-74
2023/10/15 11:46:36;;;;;;;4.57;2.90;;;;;;;13.78;45.31;99023.25;5150109;27;20039;-73